Time;durP1;ratioP1;P1;durP2;ratioP2;P2;SDS_P1;SDS_P2;PMS_P1;PMS_P2;Temp;Humidity;BMP_temperature;BMP_pressure;BME280_temperature;BME280_humidity;BME280_pressure;Samples;Min_cycle;Max_cycle;Signal;HPM_P1;HPM_P2
2022/10/30 00:00:34;;;;;;;8.00;4.50;;;;;;;16.18;56.18;100899.29;107222;1293;21952;-65
2022/10/30 00:03:00;;;;;;;7.30;4.60;;;;;;;16.17;56.19;100903.73;107283;1293;21994;-65
2022/10/30 00:05:26;;;;;;;6.00;4.90;;;;;;;16.14;56.29;100903.64;107133;1294;21959;-63
2022/10/30 00:07:54;;;;;;;7.90;5.10;;;;;;;16.10;56.46;100902.70;107329;1292;21992;-64
2022/10/30 00:10:21;;;;;;;11.50;5.60;;;;;;;16.09;56.18;100900.58;107413;1293;21941;-64
2022/10/30 00:12:49;;;;;;;6.40;4.60;;;;;;;16.08;56.06;100902.22;107221;1293;23295;-64
2022/10/30 00:15:15;;;;;;;7.50;4.70;;;;;;;16.06;55.99;100894.11;107338;1293;21961;-64
2022/10/30 00:17:41;;;;;;;6.60;4.70;;;;;;;16.07;55.98;100889.87;107264;1293;21995;-65
2022/10/30 00:20:08;;;;;;;9.20;5.40;;;;;;;16.04;55.90;100890.27;107358;1296;21971;-64
2022/10/30 00:22:34;;;;;;;6.40;4.60;;;;;;;16.03;55.83;100891.38;107406;1294;21956;-64
2022/10/30 00:25:01;;;;;;;7.50;4.90;;;;;;;16.01;55.85;100895.85;107275;1296;21961;-65
2022/10/30 00:27:27;;;;;;;6.30;4.50;;;;;;;15.97;55.79;100898.59;107301;1293;21978;-66
2022/10/30 00:29:55;;;;;;;7.00;4.60;;;;;;;15.94;55.81;100893.19;107276;1284;21946;-65
2022/10/30 00:32:21;;;;;;;9.30;5.00;;;;;;;15.91;55.86;100888.67;107408;1295;23677;-63
2022/10/30 00:34:49;;;;;;;8.30;5.20;;;;;;;15.82;56.49;100885.00;107256;1296;21982;-63
2022/10/30 00:37:15;;;;;;;6.80;4.90;;;;;;;15.78;56.06;100883.67;107276;1294;21988;-65
2022/10/30 00:39:41;;;;;;;8.10;5.00;;;;;;;15.74;56.19;100888.19;107124;1297;21934;-63
2022/10/30 00:42:13;;;;;;;7.80;4.90;;;;;;;15.70;56.08;100894.30;107260;1296;21970;-66
2022/10/30 00:44:49;;;;;;;8.90;5.20;;;;;;;15.69;56.02;100889.90;107286;1294;24317;-64
2022/10/30 00:47:20;;;;;;;6.90;5.00;;;;;;;15.67;56.19;100881.83;107390;1294;21964;-66
2022/10/30 00:50:13;;;;;;;7.80;5.00;;;;;;;15.64;56.49;100872.55;107270;1295;21964;-66
2022/10/30 00:53:12;;;;;;;8.60;5.20;;;;;;;15.63;56.36;100863.52;107161;1295;21953;-66
2022/10/30 00:55:43;;;;;;;7.90;6.00;;;;;;;15.63;56.71;100864.96;106997;1296;21962;-64
2022/10/30 00:58:14;;;;;;;10.00;5.70;;;;;;;15.64;56.40;100871.83;107315;1291;21952;-66
2022/10/30 01:00:45;;;;;;;7.00;5.00;;;;;;;15.61;56.59;100869.09;107368;1291;24009;-65
2022/10/30 01:03:10;;;;;;;8.00;5.70;;;;;;;15.58;56.71;100867.91;107259;1295;21943;-64
2022/10/30 01:05:36;;;;;;;8.90;6.00;;;;;;;15.54;57.16;100867.13;107053;1297;21965;-65
2022/10/30 01:08:03;;;;;;;8.70;5.90;;;;;;;15.53;57.15;100863.40;107098;1293;21937;-67
2022/10/30 01:10:31;;;;;;;7.60;5.50;;;;;;;15.56;56.90;100861.22;107320;1294;21961;-64
2022/10/30 01:12:58;;;;;;;8.40;5.50;;;;;;;15.58;56.77;100863.65;107215;1297;21966;-65
2022/10/30 01:15:28;;;;;;;9.30;5.20;;;;;;;15.63;56.72;100860.52;107138;1296;21951;-65
2022/10/30 01:18:07;;;;;;;9.00;6.50;;;;;;;15.66;56.79;100857.44;107159;1296;23600;-64
2022/10/30 01:20:53;;;;;;;8.80;5.50;;;;;;;15.67;56.89;100860.95;107258;1294;21955;-65
2022/10/30 01:23:41;;;;;;;8.50;5.40;;;;;;;15.71;56.71;100857.48;107191;1295;21942;-64
2022/10/30 01:26:47;;;;;;;7.60;5.60;;;;;;;15.75;56.85;100854.20;107221;1293;21958;-64
2022/10/30 01:29:20;;;;;;;9.90;6.00;;;;;;;15.79;56.92;100849.67;107312;1294;21948;-64
2022/10/30 01:32:28;;;;;;;9.00;6.40;;;;;;;15.83;56.59;100843.57;107304;1291;21970;-64
2022/10/30 01:35:04;;;;;;;10.80;6.00;;;;;;;15.78;56.74;100836.43;107347;1291;21947;-65
2022/10/30 01:37:54;;;;;;;10.40;6.40;;;;;;;15.78;56.71;100834.66;107060;1295;21973;-67
2022/10/30 01:40:20;;;;;;;;;;;;;;;15.78;56.86;100835.91;107264;1294;21944;-64
2022/10/30 01:42:51;;;;;;;9.40;6.20;;;;;;;15.76;57.06;100833.48;107234;1294;21964;-64
2022/10/30 01:45:21;;;;;;;10.30;6.00;;;;;;;15.74;57.16;100831.91;107267;1293;23592;-66
2022/10/30 01:48:24;;;;;;;7.50;5.20;;;;;;;15.75;56.99;100832.08;107266;1295;22930;-66
2022/10/30 01:51:02;;;;;;;8.50;6.10;;;;;;;15.81;56.69;100834.59;107132;1294;21950;-67
2022/10/30 01:53:53;;;;;;;11.90;6.20;;;;;;;15.82;56.69;100834.55;106470;1293;1002412;-66
2022/10/30 01:56:26;;;;;;;8.80;6.50;;;;;;;15.84;56.61;100834.69;107208;1294;21943;-65
2022/10/30 01:59:05;;;;;;;10.00;6.00;;;;;;;15.87;56.57;100832.33;107224;1293;21957;-66
2022/10/30 02:01:34;;;;;;;9.20;5.80;;;;;;;15.89;56.47;100823.07;107356;1291;21957;-64
2022/10/30 02:04:01;;;;;;;9.10;5.40;;;;;;;15.89;56.53;100812.46;107060;1294;21954;-63
2022/10/30 02:06:27;;;;;;;8.10;5.90;;;;;;;15.88;56.77;100810.55;107269;1291;21958;-66
2022/10/30 02:08:56;;;;;;;8.50;6.50;;;;;;;15.87;56.70;100806.67;107254;1294;21949;-65
2022/10/30 02:11:23;;;;;;;9.10;5.90;;;;;;;15.88;56.58;100804.53;107108;1294;21970;-65
2022/10/30 02:13:49;;;;;;;10.10;6.20;;;;;;;15.89;56.58;100803.45;107226;1292;21997;-65
2022/10/30 02:16:15;;;;;;;10.80;7.70;;;;;;;15.88;56.63;100796.20;106955;1294;21938;-66
2022/10/30 02:18:41;;;;;;;8.80;5.80;;;;;;;15.87;56.81;100796.41;106980;1291;21962;-66
2022/10/30 02:21:08;;;;;;;12.30;6.90;;;;;;;15.86;56.84;100798.01;107262;1283;23694;-66
2022/10/30 02:23:34;;;;;;;8.00;5.60;;;;;;;15.85;56.70;100802.27;107007;1293;21947;-65
2022/10/30 02:26:00;;;;;;;8.50;6.40;;;;;;;15.84;56.96;100797.88;107091;1293;21937;-65
2022/10/30 02:28:26;;;;;;;10.30;6.30;;;;;;;15.80;57.16;100795.85;107227;1291;21967;-64
2022/10/30 02:30:52;;;;;;;8.10;6.30;;;;;;;15.80;56.87;100800.63;107235;1292;21951;-66
2022/10/30 02:33:17;;;;;;;10.30;7.00;;;;;;;15.83;56.52;100807.10;107200;1293;21946;-63
2022/10/30 02:35:43;;;;;;;9.20;6.30;;;;;;;15.83;56.54;100799.66;107226;1291;22418;-63
2022/10/30 02:38:09;;;;;;;8.40;6.30;;;;;;;15.85;56.50;100795.72;107226;1291;21960;-64
2022/10/30 02:40:35;;;;;;;13.20;6.60;;;;;;;15.86;56.38;100793.60;107281;1292;21958;-66
2022/10/30 02:43:02;;;;;;;7.70;6.10;;;;;;;15.87;56.31;100790.58;107238;1294;23986;-66
2022/10/30 02:45:28;;;;;;;9.20;6.20;;;;;;;15.87;56.35;100791.99;107288;1291;21950;-66
2022/10/30 02:47:54;;;;;;;8.80;5.70;;;;;;;15.87;56.26;100792.70;107230;1291;23648;-63
2022/10/30 02:50:20;;;;;;;8.70;5.60;;;;;;;15.88;56.27;100794.09;107203;1291;21957;-64
2022/10/30 02:52:48;;;;;;;8.30;6.30;;;;;;;15.89;56.23;100788.58;107240;1292;21986;-63
2022/10/30 02:55:14;;;;;;;9.60;6.70;;;;;;;15.91;56.02;100788.17;107262;1291;21958;-64
2022/10/30 02:57:42;;;;;;;8.50;6.00;;;;;;;15.90;55.95;100790.32;107260;1292;21951;-65
2022/10/30 03:00:09;;;;;;;10.50;6.10;;;;;;;15.90;56.03;100794.89;107394;1292;21957;-63
2022/10/30 03:02:36;;;;;;;8.20;6.20;;;;;;;15.92;56.05;100792.36;107327;1293;21951;-63
2022/10/30 03:05:02;;;;;;;9.70;6.30;;;;;;;15.91;56.07;100790.63;107252;1293;21957;-63
2022/10/30 03:07:28;;;;;;;9.20;6.80;;;;;;;15.90;56.13;100785.86;107308;1291;21954;-65
2022/10/30 03:09:54;;;;;;;10.30;6.60;;;;;;;15.90;56.16;100782.67;107313;1292;22143;-66
2022/10/30 03:12:22;;;;;;;7.90;6.10;;;;;;;15.92;55.97;100785.46;107315;1292;21949;-63
2022/10/30 03:14:50;;;;;;;9.40;6.60;;;;;;;15.94;55.95;100785.41;107373;1288;21953;-66
2022/10/30 03:17:16;;;;;;;9.60;6.00;;;;;;;15.96;55.96;100785.54;107453;1291;21950;-63
2022/10/30 03:19:43;;;;;;;10.50;6.90;;;;;;;15.97;55.96;100782.15;107153;1292;21950;-64
2022/10/30 03:22:09;;;;;;;9.90;6.20;;;;;;;15.99;55.97;100782.29;108469;1291;21787;-63
2022/10/30 03:24:35;;;;;;;8.70;6.10;;;;;;;15.99;55.97;100782.63;107801;1292;21959;-63
2022/10/30 03:27:01;;;;;;;8.90;5.70;;;;;;;15.98;55.93;100780.53;107309;1291;22008;-65
2022/10/30 03:29:27;;;;;;;10.00;6.70;;;;;;;15.98;55.87;100776.11;107238;1291;21951;-65
2022/10/30 03:31:54;;;;;;;11.60;7.00;;;;;;;15.97;55.90;100774.70;107413;1291;21950;-63
2022/10/30 03:34:19;;;;;;;9.60;6.50;;;;;;;15.95;55.88;100777.42;107333;1291;21993;-66
2022/10/30 03:36:45;;;;;;;9.60;5.90;;;;;;;15.96;55.90;100781.66;107323;1291;21939;-65
2022/10/30 03:39:11;;;;;;;12.00;7.00;;;;;;;15.98;55.76;100787.09;107284;1292;21945;-64
2022/10/30 03:41:37;;;;;;;10.20;6.30;;;;;;;15.98;55.74;100786.20;107292;1291;21951;-64
2022/10/30 03:44:03;;;;;;;11.00;6.30;;;;;;;15.99;55.70;100790.41;107216;1291;21939;-65
2022/10/30 03:46:30;;;;;;;8.60;6.10;;;;;;;15.99;55.61;100790.77;107211;1289;21948;-64
2022/10/30 03:48:55;;;;;;;9.50;6.80;;;;;;;15.98;55.61;100787.95;107217;1291;21955;-63
2022/10/30 03:51:21;;;;;;;8.80;5.70;;;;;;;15.97;55.69;100781.98;107274;1288;22001;-64
2022/10/30 03:53:48;;;;;;;8.70;6.20;;;;;;;15.95;55.66;100775.30;107401;1291;22498;-66
2022/10/30 03:56:15;;;;;;;10.40;7.10;;;;;;;15.94;55.68;100770.02;107301;1291;21937;-64
2022/10/30 03:58:40;;;;;;;10.80;7.10;;;;;;;15.93;55.75;100768.99;107112;1285;21961;-68
2022/10/30 04:01:07;;;;;;;11.80;7.00;;;;;;;15.91;55.77;100766.55;107327;1293;21949;-66
2022/10/30 04:03:33;;;;;;;11.80;6.60;;;;;;;15.82;55.90;100768.20;107267;1292;21945;-67
2022/10/30 04:05:59;;;;;;;9.70;6.60;;;;;;;15.74;56.10;100760.63;107410;1291;21958;-67
2022/10/30 04:08:26;;;;;;;7.70;6.00;;;;;;;15.75;56.13;100757.98;107214;1292;21947;-64
2022/10/30 04:10:56;;;;;;;10.70;5.80;;;;;;;15.82;55.95;100753.34;107142;1293;23695;-66
2022/10/30 04:13:27;;;;;;;11.40;7.40;;;;;;;15.89;55.76;100756.16;107212;1292;21992;-69
2022/10/30 04:15:56;;;;;;;9.70;6.90;;;;;;;15.92;55.74;100754.33;107293;1291;21994;-65
2022/10/30 04:18:22;;;;;;;9.60;5.60;;;;;;;15.92;55.73;100752.38;107395;1293;21968;-65
2022/10/30 04:20:48;;;;;;;12.20;6.30;;;;;;;15.95;55.66;100752.48;107210;1293;21956;-65
2022/10/30 04:23:16;;;;;;;11.20;5.60;;;;;;;15.97;55.63;100755.59;107221;1292;21995;-65
2022/10/30 04:25:45;;;;;;;;;;;;;;;15.99;55.59;100757.84;107249;1292;21924;-65
2022/10/30 04:28:11;;;;;;;11.80;7.10;;;;;;;16.00;55.63;100761.89;107232;1292;21946;-67
2022/10/30 04:30:38;;;;;;;10.80;7.10;;;;;;;16.01;55.58;100761.86;107318;1292;21958;-67
2022/10/30 04:33:05;;;;;;;11.10;7.20;;;;;;;15.99;55.66;100764.75;107255;1284;22591;-66
2022/10/30 04:35:32;;;;;;;12.00;7.00;;;;;;;15.99;55.67;100760.85;107390;1291;21958;-65
2022/10/30 04:38:01;;;;;;;7.80;6.60;;;;;;;16.01;55.72;100759.02;107400;1291;21932;-65
2022/10/30 04:40:31;;;;;;;14.20;7.70;;;;;;;16.03;55.72;100762.15;107365;1291;21954;-69
2022/10/30 04:42:57;;;;;;;12.10;7.60;;;;;;;16.04;55.60;100765.13;107114;1289;21992;-68
2022/10/30 04:45:26;;;;;;;11.70;6.20;;;;;;;16.08;55.57;100768.55;107211;1292;23703;-66
2022/10/30 04:47:52;;;;;;;13.30;6.90;;;;;;;16.11;55.51;100766.00;107227;1292;21951;-66
2022/10/30 04:50:18;;;;;;;10.60;6.30;;;;;;;16.12;55.49;100765.80;107031;1294;21939;-66
2022/10/30 04:52:45;;;;;;;9.80;7.10;;;;;;;16.12;55.47;100764.02;107259;1289;21964;-67
2022/10/30 04:55:11;;;;;;;16.40;7.10;;;;;;;16.14;55.50;100764.33;107289;1291;21960;-66
2022/10/30 04:57:37;;;;;;;11.30;7.20;;;;;;;16.16;55.39;100762.32;107096;1295;23636;-67
2022/10/30 05:00:04;;;;;;;9.60;6.20;;;;;;;16.18;55.31;100763.67;107339;1291;21960;-67
2022/10/30 05:02:30;;;;;;;9.50;6.30;;;;;;;16.20;55.27;100763.45;107344;1292;21956;-67
2022/10/30 05:04:55;;;;;;;15.20;7.10;;;;;;;16.22;55.29;100763.39;107258;1291;21943;-67
2022/10/30 05:07:24;;;;;;;14.30;8.10;;;;;;;16.26;55.26;100762.02;107274;1291;21950;-67
2022/10/30 05:09:51;;;;;;;10.10;6.20;;;;;;;16.28;55.25;100767.98;107333;1290;21953;-68
2022/10/30 05:12:18;;;;;;;10.00;6.10;;;;;;;16.29;55.20;100764.41;107351;1291;22061;-64
2022/10/30 05:14:44;;;;;;;14.30;6.70;;;;;;;16.31;55.28;100770.02;107175;1292;21955;-66
2022/10/30 05:17:10;;;;;;;12.60;6.10;;;;;;;16.32;55.20;100774.23;107067;1293;21960;-65
2022/10/30 05:19:35;;;;;;;10.70;6.40;;;;;;;16.28;55.32;100782.87;107229;1291;21964;-65
2022/10/30 05:22:02;;;;;;;9.20;6.40;;;;;;;16.22;55.49;100783.91;107230;1291;21957;-65
2022/10/30 05:24:28;;;;;;;9.80;6.30;;;;;;;16.21;55.47;100782.00;107377;1291;21959;-67
2022/10/30 05:26:54;;;;;;;13.00;6.70;;;;;;;16.22;55.49;100781.79;107229;1293;21956;-66
2022/10/30 05:29:22;;;;;;;11.80;7.40;;;;;;;16.25;55.51;100780.66;107328;1289;21956;-65
2022/10/30 05:31:49;;;;;;;13.00;6.90;;;;;;;16.29;55.47;100780.16;107313;1288;21954;-64
2022/10/30 05:34:14;;;;;;;10.70;6.30;;;;;;;16.35;55.40;100782.98;107305;1291;21948;-66
2022/10/30 05:36:41;;;;;;;12.30;7.20;;;;;;;16.40;55.29;100784.08;107130;1293;21956;-64
2022/10/30 05:39:07;;;;;;;9.90;6.70;;;;;;;16.45;55.11;100786.96;107318;1292;21952;-64
2022/10/30 05:41:32;;;;;;;12.00;7.00;;;;;;;16.50;55.28;100791.77;108383;1292;21958;-65
2022/10/30 05:43:58;;;;;;;13.90;6.70;;;;;;;16.54;55.09;100797.66;107159;1293;21951;-65
2022/10/30 05:46:24;;;;;;;12.80;7.30;;;;;;;16.54;55.16;100800.34;107224;1292;21995;-67
2022/10/30 05:48:50;;;;;;;11.40;6.80;;;;;;;16.53;55.29;100795.22;107223;1291;21953;-66
2022/10/30 05:51:16;;;;;;;9.60;6.50;;;;;;;16.54;55.36;100792.90;107253;1293;21952;-66
2022/10/30 05:53:42;;;;;;;14.00;7.90;;;;;;;16.57;55.43;100794.02;107063;1293;21961;-66
2022/10/30 05:56:08;;;;;;;14.10;7.00;;;;;;;16.61;55.37;100791.42;107206;1291;22005;-66
2022/10/30 05:58:36;;;;;;;16.50;7.20;;;;;;;16.64;55.41;100788.48;107436;1291;21954;-66
2022/10/30 06:01:07;;;;;;;11.50;6.70;;;;;;;16.69;55.42;100785.34;107340;1293;23155;-66
2022/10/30 06:03:34;;;;;;;10.20;6.60;;;;;;;16.74;55.40;100782.88;107213;1293;21956;-65
2022/10/30 06:06:01;;;;;;;12.70;7.10;;;;;;;16.78;55.38;100784.70;106449;1292;1006294;-68
2022/10/30 06:08:27;;;;;;;10.60;6.80;;;;;;;16.80;55.43;100784.09;106997;1291;21951;-68
2022/10/30 06:10:54;;;;;;;11.70;7.00;;;;;;;16.83;55.45;100785.98;107058;1293;21961;-65
2022/10/30 06:13:20;;;;;;;10.90;6.90;;;;;;;16.83;55.54;100782.61;107267;1291;21930;-66
2022/10/30 06:15:46;;;;;;;12.10;7.10;;;;;;;16.86;55.73;100781.79;107277;1288;21950;-65
2022/10/30 06:18:12;;;;;;;11.30;7.70;;;;;;;16.88;55.85;100778.55;107188;1292;21958;-65
2022/10/30 06:20:38;;;;;;;13.00;7.90;;;;;;;16.88;55.88;100782.09;107218;1293;21946;-66
2022/10/30 06:23:06;;;;;;;13.30;8.30;;;;;;;16.88;55.94;100782.44;107291;1292;22032;-66
2022/10/30 06:25:35;;;;;;;9.10;6.70;;;;;;;16.89;55.98;100785.97;106756;1293;404081;-64
2022/10/30 06:28:01;;;;;;;11.40;7.60;;;;;;;16.91;56.05;100786.61;107209;1289;21955;-65
2022/10/30 06:30:27;;;;;;;11.00;7.00;;;;;;;16.93;56.08;100788.14;107199;1292;21949;-65
2022/10/30 06:32:57;;;;;;;12.80;7.70;;;;;;;16.95;56.08;100784.17;107317;1292;21959;-65
2022/10/30 06:35:23;;;;;;;11.30;6.70;;;;;;;16.98;56.09;100782.33;107331;1291;21941;-66
2022/10/30 06:37:52;;;;;;;11.00;7.20;;;;;;;17.07;55.90;100772.80;107423;1291;21961;-66
2022/10/30 06:40:20;;;;;;;10.40;6.70;;;;;;;17.26;55.60;100769.16;107228;1293;21960;-66
2022/10/30 06:42:48;;;;;;;12.20;8.00;;;;;;;17.33;55.51;100770.16;107303;1290;21953;-67
2022/10/30 06:45:15;;;;;;;15.40;7.80;;;;;;;17.29;55.63;100769.59;107298;1293;21942;-66
2022/10/30 06:47:41;;;;;;;59.70;33.40;;;;;;;17.31;55.82;100766.88;107232;1291;21955;-65
2022/10/30 06:50:11;;;;;;;19.60;13.90;;;;;;;17.40;55.91;100771.02;107470;1289;21959;-65
2022/10/30 06:52:37;;;;;;;14.10;9.20;;;;;;;17.47;55.78;100770.77;107290;1291;23631;-64
2022/10/30 06:55:03;;;;;;;19.10;12.30;;;;;;;17.55;55.85;100768.91;107451;1289;21948;-66
2022/10/30 06:57:29;;;;;;;14.20;9.20;;;;;;;17.63;55.87;100773.95;107327;1292;23702;-65
2022/10/30 06:59:55;;;;;;;13.10;8.80;;;;;;;17.70;55.93;100772.23;107290;1291;21996;-67
2022/10/30 07:02:21;;;;;;;21.50;16.80;;;;;;;17.80;55.91;100779.20;107245;1292;23628;-67
2022/10/30 07:04:48;;;;;;;15.40;10.60;;;;;;;17.89;55.75;100781.70;107228;1289;21959;-65
2022/10/30 07:07:15;;;;;;;15.00;10.90;;;;;;;17.98;55.65;100785.65;107117;1293;22073;-64
2022/10/30 07:09:41;;;;;;;16.20;10.50;;;;;;;18.05;55.42;100788.80;107345;1291;21948;-66
2022/10/30 07:12:07;;;;;;;15.30;11.30;;;;;;;18.09;55.31;100787.75;107355;1291;21945;-67
2022/10/30 07:14:33;;;;;;;20.60;15.50;;;;;;;18.15;55.21;100782.92;107266;1291;23739;-67
2022/10/30 07:16:59;;;;;;;35.40;24.70;;;;;;;18.18;55.08;100782.98;107286;1293;21952;-67
2022/10/30 07:19:25;;;;;;;28.00;20.00;;;;;;;18.21;54.88;100782.69;107243;1293;21951;-67
2022/10/30 07:21:52;;;;;;;84.80;56.70;;;;;;;18.22;54.93;100776.61;107139;1293;21955;-67
2022/10/30 07:24:18;;;;;;;31.70;21.40;;;;;;;18.23;54.87;100775.17;107322;1291;21955;-66
2022/10/30 07:26:44;;;;;;;42.90;24.80;;;;;;;18.31;54.49;100778.98;107318;1293;21951;-67
2022/10/30 07:29:10;;;;;;;35.40;21.60;;;;;;;18.28;54.65;100780.65;107274;1293;21998;-67
2022/10/30 07:31:38;;;;;;;19.90;13.80;;;;;;;18.34;54.51;100780.41;107323;1292;21971;-66
2022/10/30 07:34:04;;;;;;;22.10;15.20;;;;;;;18.37;54.40;100781.02;107319;1292;21962;-67
2022/10/30 07:36:30;;;;;;;20.10;11.90;;;;;;;18.43;54.38;100778.83;107230;1292;23628;-68
2022/10/30 07:38:56;;;;;;;25.10;14.50;;;;;;;18.46;54.24;100776.77;107230;1292;21963;-68
2022/10/30 07:41:22;;;;;;;43.20;23.90;;;;;;;18.48;54.16;100778.99;107213;1288;21973;-65
2022/10/30 07:43:47;;;;;;;29.70;20.80;;;;;;;18.53;54.34;100779.02;107232;1292;21975;-66
2022/10/30 07:46:13;;;;;;;24.50;18.50;;;;;;;18.57;54.27;100777.03;107283;1293;21951;-65
2022/10/30 07:48:40;;;;;;;18.00;12.30;;;;;;;18.63;54.39;100775.94;107215;1288;22414;-65
2022/10/30 07:51:07;;;;;;;27.30;17.30;;;;;;;18.71;54.36;100773.13;107332;1292;21948;-66
2022/10/30 07:53:33;;;;;;;26.90;18.70;;;;;;;18.82;54.23;100767.90;107303;1291;21957;-65
2022/10/30 07:55:59;;;;;;;17.40;8.50;;;;;;;18.92;53.84;100760.56;107330;1293;21948;-65
2022/10/30 07:58:25;;;;;;;16.70;9.90;;;;;;;18.97;54.02;100758.23;107209;1292;21971;-65
2022/10/30 08:00:50;;;;;;;15.50;9.70;;;;;;;19.03;54.07;100760.28;107179;1291;21963;-67
2022/10/30 08:03:17;;;;;;;13.20;8.60;;;;;;;19.13;53.91;100757.05;107267;1288;25016;-65
2022/10/30 08:05:43;;;;;;;13.90;8.70;;;;;;;19.20;53.82;100754.29;107263;1291;21955;-67
2022/10/30 08:08:09;;;;;;;14.90;9.00;;;;;;;19.32;53.94;100756.76;107252;1291;21993;-65
2022/10/30 08:10:35;;;;;;;15.50;9.00;;;;;;;19.41;53.66;100761.91;107258;1288;21953;-67
2022/10/30 08:13:01;;;;;;;18.80;8.30;;;;;;;19.48;53.35;100762.50;107352;1291;21955;-66
2022/10/30 08:15:28;;;;;;;12.60;8.00;;;;;;;19.51;53.39;100758.84;107200;1291;22008;-64
2022/10/30 08:18:06;;;;;;;16.00;8.90;;;;;;;19.54;53.56;100751.56;107222;1291;21994;-67
2022/10/30 08:20:34;;;;;;;17.10;9.50;;;;;;;19.61;53.44;100751.65;107385;1292;21955;-65
2022/10/30 08:23:00;;;;;;;24.30;9.80;;;;;;;19.67;53.51;100754.55;107299;1291;21959;-66
2022/10/30 08:25:27;;;;;;;16.90;9.20;;;;;;;19.78;53.57;100755.84;107240;1292;21943;-65
2022/10/30 08:27:57;;;;;;;15.10;7.90;;;;;;;19.89;53.37;100755.56;107252;1292;21967;-65
2022/10/30 08:30:25;;;;;;;14.20;8.80;;;;;;;19.96;53.13;100752.05;107302;1291;22013;-67
2022/10/30 08:32:51;;;;;;;15.40;7.90;;;;;;;20.02;53.15;100754.98;107271;1291;21955;-67
2022/10/30 08:35:17;;;;;;;13.70;8.60;;;;;;;20.12;53.19;100754.36;107140;1293;21951;-64
2022/10/30 08:37:43;;;;;;;23.20;10.40;;;;;;;20.24;52.89;100751.13;107267;1291;21963;-64
2022/10/30 08:40:09;;;;;;;20.40;9.90;;;;;;;20.38;52.09;100750.48;107265;1291;21950;-64
2022/10/30 08:42:36;;;;;;;14.60;8.80;;;;;;;20.43;51.99;100751.67;107249;1293;21956;-67
2022/10/30 08:45:02;;;;;;;20.90;9.30;;;;;;;20.44;52.03;100750.91;107201;1293;21961;-66
2022/10/30 08:47:28;;;;;;;17.10;9.20;;;;;;;20.47;52.02;100753.06;107285;1293;21964;-67
2022/10/30 08:49:55;;;;;;;18.90;8.80;;;;;;;20.50;51.96;100754.20;107299;1291;22093;-67
2022/10/30 08:52:21;;;;;;;15.00;8.90;;;;;;;20.52;52.01;100756.22;107269;1292;21934;-66
2022/10/30 08:54:48;;;;;;;15.90;9.10;;;;;;;20.54;52.01;100758.47;107276;1291;22079;-67
2022/10/30 08:57:14;;;;;;;20.10;10.30;;;;;;;20.56;51.88;100757.27;107241;1291;21948;-64
2022/10/30 08:59:42;;;;;;;15.80;9.20;;;;;;;20.60;51.82;100750.14;107304;1288;21955;-66
2022/10/30 09:02:08;;;;;;;15.40;8.40;;;;;;;20.63;51.81;100751.94;107363;1291;22913;-64
2022/10/30 09:04:34;;;;;;;16.40;8.80;;;;;;;20.65;51.49;100745.45;107285;1289;21953;-67
2022/10/30 09:07:00;;;;;;;14.00;9.30;;;;;;;20.65;51.41;100734.73;107318;1291;21938;-66
2022/10/30 09:09:26;;;;;;;17.30;9.80;;;;;;;20.71;51.71;100730.40;107271;1289;22083;-64
2022/10/30 09:11:52;;;;;;;14.70;9.20;;;;;;;20.77;51.76;100724.20;107359;1291;21953;-66
2022/10/30 09:14:18;;;;;;;18.90;9.70;;;;;;;20.84;51.45;100731.18;107325;1290;21947;-67
2022/10/30 09:16:45;;;;;;;19.10;10.50;;;;;;;20.88;51.20;100727.77;107296;1291;21998;-64
2022/10/30 09:19:11;;;;;;;19.30;10.00;;;;;;;20.93;51.36;100717.36;107196;1288;21962;-66
2022/10/30 09:21:40;;;;;;;17.20;10.10;;;;;;;21.03;51.51;100714.73;107355;1291;21954;-67
2022/10/30 09:24:06;;;;;;;13.80;8.90;;;;;;;21.09;51.18;100712.26;107287;1292;22851;-65
2022/10/30 09:26:33;;;;;;;16.20;9.20;;;;;;;21.09;50.98;100702.65;107334;1291;21962;-68
2022/10/30 09:29:00;;;;;;;14.90;8.90;;;;;;;21.05;50.87;100702.30;107309;1290;22942;-65
2022/10/30 09:31:26;;;;;;;14.90;8.40;;;;;;;21.01;50.91;100700.55;107241;1291;21951;-66
2022/10/30 09:33:52;;;;;;;17.30;8.70;;;;;;;21.04;51.12;100700.05;107239;1291;21957;-65
2022/10/30 09:36:17;;;;;;;14.40;7.90;;;;;;;21.14;51.25;100700.41;107441;1290;21943;-66
2022/10/30 09:38:46;;;;;;;17.50;9.60;;;;;;;21.25;51.54;100696.64;107220;1291;21952;-68
2022/10/30 09:41:35;;;;;;;19.70;9.20;;;;;;;21.44;51.52;100695.33;107288;1292;22072;-68
2022/10/30 09:44:13;;;;;;;11.60;8.10;;;;;;;21.58;51.64;100694.95;107220;1291;23044;-66
2022/10/30 09:46:43;;;;;;;33.60;20.30;;;;;;;21.79;50.71;100692.39;107203;1292;21950;-66
2022/10/30 09:49:20;;;;;;;40.90;24.90;;;;;;;22.10;51.02;100691.09;107254;1288;22013;-65
2022/10/30 09:51:54;;;;;;;14.50;10.60;;;;;;;22.41;50.31;100687.39;107193;1288;21938;-65
2022/10/30 09:54:21;;;;;;;18.20;10.90;;;;;;;22.78;50.10;100681.52;107323;1290;21960;-66
2022/10/30 09:56:57;;;;;;;19.80;13.40;;;;;;;23.08;49.58;100678.85;107383;1291;22020;-69
2022/10/30 09:59:38;;;;;;;14.60;8.10;;;;;;;23.35;49.13;100672.09;107260;1292;23641;-66
2022/10/30 10:02:28;;;;;;;13.70;7.90;;;;;;;23.63;49.10;100667.84;107282;1291;21947;-68
2022/10/30 10:05:12;;;;;;;14.40;7.50;;;;;;;23.90;48.43;100657.05;107242;1291;21952;-68
2022/10/30 10:07:47;;;;;;;12.30;7.90;;;;;;;24.18;48.02;100656.86;107394;1292;21960;-68
2022/10/30 10:10:39;;;;;;;13.00;7.40;;;;;;;24.37;47.55;100652.45;107137;1293;21963;-66
2022/10/30 10:13:08;;;;;;;10.40;7.10;;;;;;;24.50;47.29;100649.95;107279;1291;21975;-66
2022/10/30 10:15:58;;;;;;;10.70;7.20;;;;;;;24.62;47.24;100649.14;107302;1291;22083;-67
2022/10/30 10:18:39;;;;;;;11.80;7.70;;;;;;;24.66;47.01;100653.70;107312;1291;23690;-67
2022/10/30 10:21:25;;;;;;;18.10;6.60;;;;;;;24.67;46.18;100658.90;107191;1291;21958;-68
2022/10/30 10:23:54;;;;;;;11.60;6.70;;;;;;;24.61;45.39;100657.63;107381;1292;21963;-65
2022/10/30 10:26:44;;;;;;;14.40;6.80;;;;;;;24.53;45.46;100659.23;107257;1291;21956;-66
2022/10/30 10:29:28;;;;;;;11.10;7.30;;;;;;;24.46;45.70;100658.25;107213;1288;22007;-67
2022/10/30 10:32:16;;;;;;;36.20;24.90;;;;;;;24.37;44.87;100658.86;107217;1279;23104;-67
2022/10/30 10:34:58;;;;;;;21.90;13.70;;;;;;;24.36;45.54;100657.52;107313;1291;21958;-68
2022/10/30 10:37:39;;;;;;;98.80;76.40;;;;;;;24.39;44.25;100652.46;107183;1289;21959;-67
2022/10/30 10:40:18;;;;;;;28.60;21.80;;;;;;;24.53;43.95;100652.08;107218;1288;22038;-65
2022/10/30 10:42:47;;;;;;;13.20;9.90;;;;;;;24.71;43.54;100654.48;107111;1293;21978;-68
2022/10/30 10:45:53;;;;;;;13.60;7.70;;;;;;;24.74;41.60;100656.66;107318;1291;21963;-66
2022/10/30 10:48:44;;;;;;;17.70;7.10;;;;;;;24.66;41.25;100657.49;107259;1291;21942;-68
2022/10/30 10:51:20;;;;;;;11.00;7.20;;;;;;;24.59;41.65;100659.22;107284;1292;21961;-65
2022/10/30 10:53:53;;;;;;;12.50;6.00;;;;;;;24.51;42.28;100660.98;107178;1291;22157;-65
2022/10/30 10:56:20;;;;;;;13.70;7.30;;;;;;;24.42;42.73;100657.11;107498;1291;21992;-67
2022/10/30 10:58:52;;;;;;;12.70;7.10;;;;;;;24.27;42.33;100659.88;107260;1292;23471;-67
2022/10/30 11:01:38;;;;;;;15.60;6.90;;;;;;;24.13;42.78;100663.48;107329;1291;21963;-65
2022/10/30 11:04:08;;;;;;;9.60;6.80;;;;;;;24.01;42.99;100664.39;107360;1293;21962;-68
2022/10/30 11:06:34;;;;;;;9.70;5.30;;;;;;;23.90;42.79;100663.27;107226;1285;21958;-66
2022/10/30 11:09:22;;;;;;;11.00;6.50;;;;;;;23.81;42.83;100668.72;107144;1293;22017;-65
2022/10/30 11:11:50;;;;;;;9.90;6.00;;;;;;;23.69;42.72;100664.42;107266;1291;22533;-68
2022/10/30 11:14:21;;;;;;;15.60;10.20;;;;;;;23.62;42.68;100654.14;107162;1293;22200;-66
2022/10/30 11:17:14;;;;;;;14.60;10.40;;;;;;;23.56;42.74;100655.73;107337;1287;21973;-67
2022/10/30 11:19:40;;;;;;;13.30;8.50;;;;;;;23.48;42.29;100654.30;107289;1290;21972;-67
2022/10/30 11:22:32;;;;;;;14.10;9.00;;;;;;;23.41;42.30;100652.01;107268;1292;21970;-66